Time;durP1;ratioP1;P1;durP2;ratioP2;P2;SDS_P1;SDS_P2;PMS_P1;PMS_P2;Temp;Humidity;BMP_temperature;BMP_pressure;BME280_temperature;BME280_humidity;BME280_pressure;Samples;Min_cycle;Max_cycle;Signal;HPM_P1;HPM_P2
2022/06/22 00:01:50;;;;;;;6.22;1.13;;;;;;;22.16;39.24;101053.91;4963098;28;20501;-71
2022/06/22 00:04:19;;;;;;;2.53;1.33;;;;;;;22.09;38.82;101061.19;4946283;28;20023;-71
2022/06/22 00:07:04;;;;;;;5.65;1.38;;;;;;;22.03;39.93;101064.69;4945879;28;20549;-71
2022/06/22 00:09:35;;;;;;;3.50;1.10;;;;;;;21.98;39.05;101073.47;4948421;28;20023;-71
2022/06/22 00:12:01;;;;;;;2.00;1.00;;;;;;;21.97;39.98;101069.06;4964302;28;20046;-71
2022/06/22 00:14:48;;;;;;;3.67;1.70;;;;;;;21.95;39.61;101045.75;4951210;28;20065;-71
2022/06/22 00:17:37;;;;;;;8.32;1.40;;;;;;;21.91;39.32;101042.59;4974095;28;20062;-71
2022/06/22 00:20:11;;;;;;;3.03;1.27;;;;;;;21.86;39.38;101047.75;4950540;28;20043;-71
2022/06/22 00:22:52;;;;;;;3.42;1.20;;;;;;;21.83;40.04;101039.13;4975092;28;20037;-71
2022/06/22 00:25:36;;;;;;;2.53;1.20;;;;;;;21.81;39.68;101043.91;4975384;28;20034;-70
2022/06/22 00:28:30;;;;;;;1.85;1.42;;;;;;;21.79;39.62;101037.81;4958181;28;20029;-71
2022/06/22 00:31:16;;;;;;;1.80;1.30;;;;;;;21.75;39.54;101031.06;4974444;28;20035;-71
2022/06/22 00:34:05;;;;;;;2.70;1.30;;;;;;;21.71;39.64;101037.97;4957624;28;20114;-71
2022/06/22 00:36:46;;;;;;;8.77;2.22;;;;;;;21.65;39.52;101036.03;4975003;28;20113;-70
2022/06/22 00:39:22;;;;;;;3.83;1.35;;;;;;;21.60;39.85;101028.44;4958124;28;20021;-70
2022/06/22 00:41:50;;;;;;;3.05;1.90;;;;;;;21.58;39.93;101024.22;4975076;28;20006;-71
2022/06/22 00:44:16;;;;;;;3.00;1.42;;;;;;;21.56;40.03;101012.66;4974978;28;20444;-71
2022/06/22 00:46:47;;;;;;;1.38;1.20;;;;;;;21.54;40.56;100991.03;4941835;28;20022;-71
2022/06/22 00:49:17;;;;;;;2.47;1.95;;;;;;;21.53;40.69;100974.88;4957129;28;20500;-71
2022/06/22 00:51:42;;;;;;;1.70;1.38;;;;;;;21.52;40.07;100978.66;4956261;28;20033;-71
2022/06/22 00:54:14;;;;;;;4.78;1.48;;;;;;;21.53;40.81;100992.06;4954085;28;20046;-71
2022/06/22 00:56:54;;;;;;;4.53;1.40;;;;;;;21.54;40.47;100992.94;4956629;28;20396;-71
2022/06/22 00:59:37;;;;;;;3.97;1.67;;;;;;;21.50;40.96;100984.28;4957708;28;20062;-71
2022/06/22 01:02:15;;;;;;;;;;;;;;;21.44;39.93;100996.81;4954581;29;20054;-71
2022/06/22 01:04:46;;;;;;;3.22;1.33;;;;;;;21.37;39.77;101009.56;4938805;29;20265;-71
2022/06/22 01:07:29;;;;;;;5.07;1.58;;;;;;;21.31;40.81;101007.59;4955294;28;20120;-71
2022/06/22 01:09:55;;;;;;;;;;;;;;;21.24;40.41;101001.25;4955952;28;20031;-72
2022/06/22 01:12:25;;;;;;;1.38;1.05;;;;;;;21.20;40.47;100999.94;4954302;29;20005;-72
2022/06/22 01:15:16;;;;;;;4.22;1.75;;;;;;;21.16;40.51;101004.09;4954552;29;20037;-71
2022/06/22 01:18:04;;;;;;;8.40;1.40;;;;;;;21.11;40.49;101006.56;4938106;28;20035;-71
2022/06/22 01:20:53;;;;;;;1.58;1.42;;;;;;;21.08;40.29;100993.31;4958608;28;20121;-71
2022/06/22 01:23:27;;;;;;;4.45;1.58;;;;;;;21.07;40.42;101002.53;4955087;28;20508;-71
2022/06/22 01:26:13;;;;;;;2.97;1.77;;;;;;;21.04;40.71;100997.44;4958728;28;20031;-72
2022/06/22 01:28:38;;;;;;;1.38;1.25;;;;;;;21.04;40.67;100989.28;4951672;29;20086;-72
2022/06/22 01:31:12;;;;;;;3.10;1.45;;;;;;;21.01;41.16;100989.66;4973121;28;20082;-71
2022/06/22 01:33:46;;;;;;;5.07;2.25;;;;;;;21.00;41.23;100992.56;4956930;29;20019;-71
2022/06/22 01:36:24;;;;;;;4.93;1.50;;;;;;;21.01;41.43;100983.34;4956896;29;20543;-71
2022/06/22 01:38:51;;;;;;;3.97;1.60;;;;;;;20.99;41.14;100978.13;4958040;28;20034;-72
2022/06/22 01:41:39;;;;;;;4.10;1.83;;;;;;;20.99;40.78;100985.44;4957143;29;20110;-71
2022/06/22 01:44:32;;;;;;;3.38;1.52;;;;;;;20.94;40.96;100993.34;4956544;29;20118;-71
2022/06/22 01:47:08;;;;;;;;;;;;;;;20.89;41.05;100997.47;4957726;29;20122;-71
2022/06/22 01:49:40;;;;;;;2.35;1.52;;;;;;;20.86;41.04;100995.13;4973478;28;19998;-71
2022/06/22 01:52:11;;;;;;;4.90;1.92;;;;;;;20.85;41.01;100993.44;4958663;28;20031;-72
2022/06/22 01:54:48;;;;;;;8.32;1.88;;;;;;;20.83;41.46;100987.34;4956937;28;20035;-71
2022/06/22 01:57:31;;;;;;;4.05;2.10;;;;;;;20.79;41.26;100979.75;4957015;29;20023;-71
2022/06/22 02:00:04;;;;;;;3.40;1.83;;;;;;;20.74;41.32;100977.59;4959458;28;20050;-71
2022/06/22 02:02:37;;;;;;;5.47;1.70;;;;;;;20.70;41.28;100983.63;4977459;28;20030;-71
2022/06/22 02:05:24;;;;;;;3.03;1.63;;;;;;;20.69;41.67;100984.66;4977257;28;20472;-70
2022/06/22 02:08:04;;;;;;;5.88;2.22;;;;;;;20.66;41.20;100995.94;4960348;28;20026;-71
2022/06/22 02:10:52;;;;;;;3.47;1.67;;;;;;;20.63;41.64;100996.31;4960143;28;20048;-71
2022/06/22 02:13:31;;;;;;;3.95;1.70;;;;;;;20.61;41.81;101001.09;4960155;28;20094;-70
2022/06/22 02:16:12;;;;;;;3.88;2.00;;;;;;;20.61;41.69;100998.38;4944150;28;20030;-72
2022/06/22 02:18:50;;;;;;;4.05;1.90;;;;;;;20.60;41.90;101002.97;4959783;28;20109;-72
2022/06/22 02:21:18;;;;;;;2.45;1.77;;;;;;;20.56;41.90;100992.66;4943804;28;20074;-71
2022/06/22 02:23:44;;;;;;;2.17;1.58;;;;;;;20.51;41.40;100997.84;4959715;28;20114;-71
2022/06/22 02:26:18;;;;;;;4.85;1.70;;;;;;;20.47;42.00;100993.78;4959956;28;20027;-71
2022/06/22 02:28:44;;;;;;;2.85;1.77;;;;;;;20.41;41.66;101009.00;4959847;28;20026;-71
2022/06/22 02:31:09;;;;;;;3.90;1.63;;;;;;;20.36;41.33;101010.59;4958501;28;20037;-72
2022/06/22 02:33:38;;;;;;;1.52;1.42;;;;;;;20.31;41.79;101025.63;4976823;28;20030;-71
2022/06/22 02:36:03;;;;;;;3.58;1.90;;;;;;;20.28;41.97;101015.13;4959752;28;20480;-72
2022/06/22 02:38:29;;;;;;;2.28;2.03;;;;;;;20.25;41.66;101009.19;4959604;28;20031;-71
2022/06/22 02:46:29;;;;;;;2.88;1.77;;;;;;;20.19;42.52;100999.88;4977063;28;20042;-71
2022/06/22 02:48:59;;;;;;;2.67;1.83;;;;;;;20.21;42.59;100997.81;4959530;28;20034;-71
2022/06/22 02:51:31;;;;;;;4.55;1.90;;;;;;;20.20;42.45;100995.28;4959427;28;20461;-71
2022/06/22 02:53:58;;;;;;;4.43;1.95;;;;;;;20.19;42.26;100983.56;4943399;28;20029;-71
2022/06/22 02:56:31;;;;;;;4.57;2.40;;;;;;;20.17;42.44;100985.63;4976914;28;20031;-71
2022/06/22 02:58:57;;;;;;;3.15;2.03;;;;;;;20.17;41.89;100979.34;4959209;28;20038;-72
2022/06/22 03:01:25;;;;;;;6.32;2.13;;;;;;;20.14;42.31;100966.97;4943069;28;20521;-71
2022/06/22 03:03:54;;;;;;;8.45;2.88;;;;;;;20.12;42.63;100958.16;4959147;28;20033;-71
2022/06/22 03:06:22;;;;;;;3.28;2.00;;;;;;;20.10;42.51;100952.03;4943645;28;20027;-71
2022/06/22 03:08:49;;;;;;;5.30;2.22;;;;;;;20.08;42.48;100959.53;4976763;28;20099;-72
2022/06/22 03:11:15;;;;;;;2.63;1.92;;;;;;;20.05;42.13;100959.91;4959341;28;20121;-71
2022/06/22 03:13:45;;;;;;;5.95;2.25;;;;;;;20.07;42.28;100962.47;4976208;28;20101;-72
2022/06/22 03:16:22;;;;;;;3.88;2.28;;;;;;;20.07;42.74;100968.72;4976159;28;20023;-71
2022/06/22 03:18:50;;;;;;;7.32;2.30;;;;;;;20.07;42.42;100957.84;4976163;28;20030;-71
2022/06/22 03:21:16;;;;;;;3.40;2.15;;;;;;;20.06;42.81;100950.75;4959347;28;20381;-72
2022/06/22 03:24:06;;;;;;;5.25;2.50;;;;;;;20.08;42.47;100953.25;4958724;28;20038;-71
2022/06/22 03:26:37;;;;;;;3.35;2.35;;;;;;;20.06;42.59;100958.91;4958896;28;20018;-71
2022/06/22 03:29:10;;;;;;;3.50;2.38;;;;;;;20.06;42.93;100956.19;4958846;28;20503;-71
2022/06/22 03:31:43;;;;;;;3.60;2.45;;;;;;;20.08;43.20;100959.53;4974751;28;20099;-72
2022/06/22 03:34:21;;;;;;;4.43;3.20;;;;;;;20.09;43.02;100966.69;4942476;28;20038;-71
2022/06/22 03:36:55;;;;;;;3.90;2.53;;;;;;;20.10;42.60;100971.06;4958589;28;20031;-71
2022/06/22 03:39:21;;;;;;;5.63;2.50;;;;;;;20.11;42.50;100974.63;4958600;28;20508;-72
2022/06/22 03:41:55;;;;;;;2.65;1.83;;;;;;;20.09;42.92;100983.00;4958481;28;20023;-71
2022/06/22 03:44:26;;;;;;;3.33;2.60;;;;;;;20.10;42.72;100981.94;4958012;28;20030;-71
2022/06/22 03:47:11;;;;;;;4.28;2.50;;;;;;;20.11;43.18;100991.81;4958004;28;20120;-72
2022/06/22 03:49:41;;;;;;;3.38;2.20;;;;;;;20.14;42.64;100983.28;4958636;28;20062;-71
2022/06/22 03:52:33;;;;;;;5.72;2.28;;;;;;;20.15;42.91;100982.25;4974943;28;20121;-72
2022/06/22 03:55:06;;;;;;;2.55;2.35;;;;;;;20.14;43.04;100991.44;4975778;28;20532;-71
2022/06/22 03:57:36;;;;;;;4.75;2.65;;;;;;;20.16;42.72;100994.81;4958335;28;20445;-71
2022/06/22 04:00:04;;;;;;;3.55;2.83;;;;;;;20.19;42.75;100999.88;4957981;28;20054;-72
2022/06/22 04:02:29;;;;;;;3.50;2.55;;;;;;;20.22;42.53;100988.63;4957460;28;20023;-71
2022/06/22 04:04:55;;;;;;;5.68;2.92;;;;;;;20.26;42.70;100984.53;4975404;28;20037;-71
2022/06/22 04:07:23;;;;;;;6.93;3.75;;;;;;;20.30;43.00;100988.56;4974365;28;20027;-72
2022/06/22 04:09:52;;;;;;;8.15;3.00;;;;;;;20.36;43.46;100983.38;4958217;28;20092;-71
2022/06/22 04:12:34;;;;;;;8.10;3.30;;;;;;;20.41;43.09;100975.53;4958117;28;20023;-71
2022/06/22 04:15:09;;;;;;;10.38;3.67;;;;;;;20.43;42.97;100984.34;4958285;28;20033;-72
2022/06/22 04:17:39;;;;;;;6.90;3.60;;;;;;;20.48;43.23;100987.31;4975309;28;20049;-71
2022/06/22 04:20:49;;;;;;;5.72;3.42;;;;;;;20.49;43.60;100978.97;4958246;28;20400;-71
2022/06/22 04:23:13;;;;;;;8.82;3.97;;;;;;;20.52;43.33;100991.38;4960562;28;20038;-71
2022/06/22 04:25:39;;;;;;;9.25;3.42;;;;;;;20.54;43.47;100981.13;4958090;28;20373;-72
2022/06/22 04:28:06;;;;;;;5.15;3.45;;;;;;;20.60;43.52;100991.25;4957828;28;20034;-72
2022/06/22 04:30:35;;;;;;;5.80;3.22;;;;;;;20.62;43.15;100981.03;4958069;28;20400;-71
2022/06/22 04:33:06;;;;;;;11.35;3.17;;;;;;;20.66;43.62;100980.44;4958004;28;20065;-71
2022/06/22 04:35:36;;;;;;;6.85;4.13;;;;;;;20.71;43.32;100977.16;4975067;28;20031;-71
2022/06/22 04:38:06;;;;;;;4.00;3.08;;;;;;;20.79;43.76;100971.59;4957705;28;20085;-71
2022/06/22 04:40:37;;;;;;;8.55;3.38;;;;;;;20.92;43.04;100974.47;4975151;28;20049;-71
2022/06/22 04:43:04;;;;;;;5.15;3.35;;;;;;;20.99;43.29;100972.66;4974947;28;20061;-72
2022/06/22 04:45:31;;;;;;;8.57;3.40;;;;;;;21.11;42.92;100967.56;4957688;28;20481;-71
2022/06/22 04:48:05;;;;;;;6.78;3.42;;;;;;;21.27;43.29;100970.88;4957879;28;20197;-71
2022/06/22 04:50:30;;;;;;;7.80;3.85;;;;;;;21.43;43.21;100980.69;4974955;28;20473;-71
2022/06/22 04:52:59;;;;;;;5.07;3.47;;;;;;;21.62;43.13;100979.16;4975161;28;20034;-71
2022/06/22 04:55:26;;;;;;;8.23;4.13;;;;;;;21.78;43.22;100974.25;4945540;28;20510;-71
2022/06/22 04:57:54;;;;;;;5.40;3.67;;;;;;;21.98;43.32;100974.41;4978654;28;20042;-71
2022/06/22 05:00:22;;;;;;;9.38;4.57;;;;;;;22.15;42.99;100978.53;4961461;28;20043;-72
2022/06/22 05:02:53;;;;;;;8.75;4.00;;;;;;;22.35;43.15;100978.63;4978604;28;20034;-72
2022/06/22 05:05:19;;;;;;;7.25;3.92;;;;;;;22.53;42.38;100982.50;4961331;28;20102;-71
2022/06/22 05:07:45;;;;;;;8.15;4.82;;;;;;;22.74;42.44;100995.25;4977943;28;20499;-70
2022/06/22 05:10:48;;;;;;;5.72;4.05;;;;;;;22.95;42.92;100991.50;4977430;28;20440;-71
2022/06/22 05:13:17;;;;;;;6.03;3.97;;;;;;;23.14;42.46;100979.81;4978451;28;20113;-71
2022/06/22 05:15:44;;;;;;;8.23;4.15;;;;;;;23.31;42.60;100974.78;4976602;28;20030;-73
2022/06/22 05:18:43;;;;;;;5.53;4.03;;;;;;;23.49;42.64;100984.09;4977989;28;20037;-71
2022/06/22 05:21:32;;;;;;;6.70;3.88;;;;;;;23.63;41.70;100973.97;4930026;28;20090;-70
2022/06/22 05:24:00;;;;;;;6.22;4.30;;;;;;;23.78;42.22;100980.91;4978064;28;20027;-71
2022/06/22 05:26:26;;;;;;;5.53;3.65;;;;;;;23.96;41.39;100979.41;4977485;28;20026;-71
2022/06/22 05:29:03;;;;;;;4.82;3.40;;;;;;;24.07;41.24;100976.03;4960872;28;20118;-71
2022/06/22 05:31:31;;;;;;;9.25;4.57;;;;;;;24.14;41.34;100968.69;4960867;28;20038;-72
2022/06/22 05:34:01;;;;;;;6.25;3.78;;;;;;;24.21;42.08;100974.97;4960195;28;20102;-71
2022/06/22 05:36:30;;;;;;;5.45;3.88;;;;;;;24.30;41.91;100976.44;4960592;28;20026;-71
2022/06/22 05:38:56;;;;;;;6.32;3.20;;;;;;;24.44;41.04;100982.72;4961061;28;20023;-71
2022/06/22 05:41:33;;;;;;;7.45;3.65;;;;;;;24.56;41.28;100976.38;4960785;28;20038;-69
2022/06/22 05:44:03;;;;;;;8.63;3.72;;;;;;;24.73;41.55;100977.56;4960501;28;20366;-70
2022/06/22 05:46:29;;;;;;;7.50;3.38;;;;;;;24.90;40.48;100986.97;4977689;28;20033;-70
2022/06/22 05:48:55;;;;;;;6.30;3.38;;;;;;;25.06;40.85;100987.53;4977591;28;20034;-70
2022/06/22 05:51:45;;;;;;;5.40;3.90;;;;;;;25.26;40.72;100997.31;4960602;28;20085;-70
2022/06/22 05:54:39;;;;;;;5.65;4.10;;;;;;;25.43;40.36;100992.16;4960339;28;20085;-69
2022/06/22 05:57:20;;;;;;;9.52;3.55;;;;;;;25.60;40.42;101000.69;4960500;28;20523;-70
2022/06/22 05:59:54;;;;;;;7.13;3.00;;;;;;;25.78;39.95;100993.34;4977234;28;20027;-70
2022/06/22 06:02:36;;;;;;;5.63;3.60;;;;;;;25.96;39.72;100998.06;4945192;28;20480;-70
2022/06/22 06:05:04;;;;;;;7.93;3.38;;;;;;;26.18;39.49;100996.59;4959034;28;20054;-70
2022/06/22 06:07:30;;;;;;;6.07;3.40;;;;;;;26.33;39.75;100986.06;4977610;28;20523;-69
2022/06/22 06:09:55;;;;;;;4.65;3.33;;;;;;;26.45;39.31;100983.41;4977215;28;20023;-70
2022/06/22 06:12:25;;;;;;;5.47;3.28;;;;;;;26.55;39.04;100986.44;4977075;28;20388;-70
2022/06/22 06:14:51;;;;;;;5.45;3.55;;;;;;;26.66;38.85;100988.44;4976977;28;20038;-70
2022/06/22 06:17:26;;;;;;;6.50;3.08;;;;;;;26.75;39.32;100988.94;4960122;28;20022;-70
2022/06/22 06:19:52;;;;;;;6.28;3.40;;;;;;;26.98;38.22;101000.94;4976936;28;20492;-70
2022/06/22 06:22:18;;;;;;;4.30;3.05;;;;;;;27.22;38.59;101003.78;4977111;28;20062;-70
2022/06/22 06:27:41;;;;;;;6.32;3.05;;;;;;;27.72;38.03;101008.72;4962381;28;20034;-70
2022/06/22 06:30:15;;;;;;;6.72;3.22;;;;;;;27.92;38.37;101011.13;4960222;28;20030;-69
2022/06/22 06:32:43;;;;;;;9.18;3.22;;;;;;;28.12;38.08;101003.41;4977272;28;20019;-70
2022/06/22 06:35:35;;;;;;;5.72;3.45;;;;;;;28.38;36.63;101012.25;4976975;28;20058;-69
2022/06/22 06:38:34;;;;;;;7.70;3.78;;;;;;;28.63;37.30;101004.56;4961185;28;20496;-69
2022/06/22 06:41:09;;;;;;;10.25;3.63;;;;;;;28.82;36.01;100998.63;4959607;28;20521;-70
2022/06/22 06:43:50;;;;;;;6.75;4.30;;;;;;;29.03;36.37;100999.03;4976634;28;20027;-70
2022/06/22 06:46:34;;;;;;;6.60;2.97;;;;;;;29.23;36.44;100994.75;4975675;28;20027;-70
2022/06/22 06:49:23;;;;;;;5.45;2.88;;;;;;;29.47;35.19;100991.88;4976783;28;20030;-69
2022/06/22 06:51:59;;;;;;;4.30;2.72;;;;;;;29.72;35.52;101000.59;4975993;28;20038;-70
2022/06/22 06:54:34;;;;;;;7.70;2.85;;;;;;;29.93;34.67;100999.88;4976506;28;20126;-71
2022/06/22 06:57:04;;;;;;;10.13;3.78;;;;;;;30.04;34.98;100989.84;4975583;28;20035;-69
2022/06/22 06:59:30;;;;;;;9.82;2.85;;;;;;;30.09;34.51;100987.97;4959296;28;20058;-70
2022/06/22 07:02:05;;;;;;;4.72;2.58;;;;;;;30.18;34.19;100989.19;4976084;28;20046;-70
2022/06/22 07:04:32;;;;;;;5.53;2.42;;;;;;;30.33;34.47;100989.44;4959324;28;20378;-69
2022/06/22 07:07:35;;;;;;;7.38;2.83;;;;;;;30.55;33.94;100984.78;4958813;28;20030;-69
2022/06/22 07:10:06;;;;;;;;;;;;;;;30.82;34.23;100982.06;4976626;28;20389;-70
2022/06/22 07:12:43;;;;;;;9.00;3.20;;;;;;;31.04;34.00;100979.31;4975913;28;19993;-69
2022/06/22 07:15:18;;;;;;;4.15;2.85;;;;;;;31.26;33.04;100977.34;4958759;28;20035;-69
2022/06/22 07:17:45;;;;;;;5.10;3.17;;;;;;;31.45;33.40;100962.00;4958695;28;20101;-69
2022/06/22 07:20:37;;;;;;;4.88;2.88;;;;;;;31.69;32.69;100971.66;4958713;28;20033;-70
2022/06/22 07:23:12;;;;;;;12.35;3.83;;;;;;;31.89;32.48;100970.13;4955924;28;20077;-70
2022/06/22 07:25:44;;;;;;;4.85;2.33;;;;;;;32.05;32.60;100963.63;4958616;28;20034;-69
2022/06/22 07:28:30;;;;;;;4.07;2.83;;;;;;;32.21;31.99;100952.38;4976096;28;20030;-70
2022/06/22 07:31:20;;;;;;;4.38;2.42;;;;;;;32.43;31.55;100959.69;4975840;28;20054;-70
2022/06/22 07:33:54;;;;;;;4.30;2.47;;;;;;;32.61;31.42;100953.69;4958485;28;20031;-70
2022/06/22 07:36:37;;;;;;;5.43;3.38;;;;;;;32.76;31.46;100942.63;4975742;28;20037;-69
2022/06/22 07:39:12;;;;;;;4.90;2.90;;;;;;;32.93;31.55;100956.28;4975722;28;20102;-69
2022/06/22 07:41:37;;;;;;;3.72;3.08;;;;;;;33.11;30.65;100955.81;4974401;28;20026;-70
2022/06/22 07:44:07;;;;;;;5.35;2.85;;;;;;;33.28;30.80;100957.22;4975556;28;20133;-70
2022/06/22 07:46:37;;;;;;;3.22;2.40;;;;;;;33.44;31.32;100952.50;4958475;28;20385;-70
2022/06/22 07:49:29;;;;;;;4.82;2.53;;;;;;;33.64;30.63;100954.50;4958547;28;20026;-69
2022/06/22 07:51:57;;;;;;;4.93;2.33;;;;;;;33.84;30.57;100955.28;4975007;28;20039;-70
2022/06/22 07:54:28;;;;;;;7.07;2.90;;;;;;;34.00;30.21;100963.63;4975435;28;20046;-70
2022/06/22 07:57:10;;;;;;;5.75;2.33;;;;;;;34.18;29.41;100972.22;4958645;28;20025;-69
2022/06/22 07:59:57;;;;;;;4.75;2.70;;;;;;;34.35;29.59;100977.47;4975587;28;20041;-70
2022/06/22 08:02:27;;;;;;;7.57;3.15;;;;;;;34.49;29.38;100972.97;4957876;28;20043;-70
2022/06/22 08:04:57;;;;;;;7.88;2.40;;;;;;;34.65;29.69;100977.38;4957899;28;20110;-70
2022/06/22 08:07:27;;;;;;;7.18;2.55;;;;;;;34.81;29.76;100970.66;4958106;28;20022;-70
2022/06/22 08:10:04;;;;;;;3.80;2.33;;;;;;;34.99;29.40;100967.19;4958499;28;20081;-70
2022/06/22 08:12:44;;;;;;;6.35;3.08;;;;;;;35.18;29.29;100958.19;4974296;28;20481;-70
2022/06/22 08:15:13;;;;;;;8.93;2.78;;;;;;;35.31;29.12;100963.09;4974918;28;20023;-70
2022/06/22 08:17:42;;;;;;;4.43;2.50;;;;;;;35.32;29.20;100964.75;4957871;28;20031;-70
2022/06/22 08:20:10;;;;;;;4.22;2.35;;;;;;;35.07;29.55;100966.59;4975314;28;20038;-69
2022/06/22 08:22:36;;;;;;;9.25;1.88;;;;;;;35.18;29.05;100974.91;4975062;28;20042;-70
2022/06/22 08:25:04;;;;;;;5.80;2.75;;;;;;;35.19;29.18;100971.00;4975230;28;20031;-69
2022/06/22 08:27:29;;;;;;;4.47;2.30;;;;;;;35.35;28.87;100967.81;4975152;28;20386;-69
2022/06/22 08:29:56;;;;;;;3.33;2.42;;;;;;;35.39;28.73;100966.13;4975089;28;20042;-70
2022/06/22 08:32:27;;;;;;;4.47;2.67;;;;;;;35.22;28.93;100964.84;4957717;28;20027;-69
2022/06/22 08:34:58;;;;;;;6.03;2.53;;;;;;;35.43;28.06;100964.38;4957755;28;20549;-70
2022/06/22 08:37:30;;;;;;;6.90;1.90;;;;;;;35.64;27.80;100976.25;4975062;28;20027;-69
2022/06/22 08:40:04;;;;;;;11.25;1.80;;;;;;;35.88;27.64;100974.34;4958007;28;20039;-70
2022/06/22 08:42:49;;;;;;;1.80;1.35;;;;;;;36.07;27.15;100978.09;4974780;28;20030;-69
2022/06/22 08:45:18;;;;;;;4.55;1.40;;;;;;;36.23;27.41;100970.41;4957738;28;20110;-70
2022/06/22 08:47:44;;;;;;;2.53;1.42;;;;;;;36.43;26.95;100964.59;4973713;28;20483;-70
2022/06/22 08:50:29;;;;;;;4.68;1.85;;;;;;;36.27;27.22;100981.81;4974893;28;20070;-70
2022/06/22 08:53:08;;;;;;;3.60;2.13;;;;;;;36.24;27.30;100974.03;4974935;28;20023;-70
2022/06/22 08:55:55;;;;;;;8.10;2.03;;;;;;;36.49;26.78;100968.16;4957707;28;20035;-70
2022/06/22 08:58:29;;;;;;;3.35;1.80;;;;;;;36.66;27.41;100974.09;4974809;28;20030;-70
2022/06/22 09:01:03;;;;;;;3.10;1.85;;;;;;;36.78;26.54;100966.94;4974812;28;20050;-70
2022/06/22 09:03:51;;;;;;;3.90;1.73;;;;;;;36.97;26.44;100957.78;4973684;28;20057;-70
2022/06/22 09:06:29;;;;;;;4.28;1.70;;;;;;;37.13;25.83;100960.03;4974778;28;20496;-70
2022/06/22 09:09:11;;;;;;;3.05;1.80;;;;;;;37.21;25.78;100964.97;4974906;28;20031;-71
2022/06/22 09:12:00;;;;;;;3.25;1.45;;;;;;;37.27;25.81;100963.72;4973603;28;20027;-70
2022/06/22 09:14:49;;;;;;;6.10;1.38;;;;;;;37.40;25.97;100961.31;4974737;28;20031;-70
2022/06/22 09:17:28;;;;;;;3.15;1.30;;;;;;;37.52;25.10;100967.31;4958026;28;20381;-69
2022/06/22 09:20:24;;;;;;;3.35;1.42;;;;;;;37.57;25.41;100961.63;4957389;28;20448;-71
2022/06/22 09:22:58;;;;;;;4.78;1.63;;;;;;;37.59;25.41;100957.38;4974553;28;20113;-69
2022/06/22 09:25:41;;;;;;;1.73;1.02;;;;;;;37.60;24.61;100950.66;4957530;28;20106;-70
2022/06/22 09:28:13;;;;;;;4.95;1.40;;;;;;;37.59;24.68;100943.41;4957510;28;20035;-70
2022/06/22 09:30:51;;;;;;;2.80;1.30;;;;;;;37.67;24.41;100947.44;4957453;28;20030;-70
2022/06/22 09:33:44;;;;;;;2.85;1.15;;;;;;;37.81;24.40;100945.50;4957371;28;20029;-70
2022/06/22 09:36:33;;;;;;;5.45;1.30;;;;;;;37.92;24.79;100941.44;4974377;28;20109;-70
2022/06/22 09:39:31;;;;;;;3.92;1.70;;;;;;;38.01;24.03;100931.19;4974011;28;20496;-70
2022/06/22 09:42:29;;;;;;;2.92;1.10;;;;;;;38.13;24.51;100934.31;4942007;28;20555;-70
2022/06/22 09:45:32;;;;;;;3.15;0.85;;;;;;;38.28;23.68;100930.34;4976746;28;20023;-70
2022/06/22 09:48:11;;;;;;;3.22;1.08;;;;;;;38.31;23.56;100919.38;4968383;28;20050;-70
2022/06/22 09:50:49;;;;;;;0.95;0.77;;;;;;;38.33;23.59;100919.91;4976528;28;20546;-71
2022/06/22 09:53:47;;;;;;;3.47;1.02;;;;;;;38.48;23.08;100915.97;4976439;28;20019;-70
2022/06/22 09:56:42;;;;;;;3.70;0.95;;;;;;;38.61;24.03;100919.91;4977809;28;20054;-70
2022/06/22 09:59:34;;;;;;;5.38;1.10;;;;;;;38.86;23.75;100916.56;4975589;28;20039;-71
2022/06/22 10:02:18;;;;;;;3.70;1.38;;;;;;;39.05;23.04;100925.63;4960221;28;20054;-70
2022/06/22 10:04:48;;;;;;;2.35;0.80;;;;;;;39.34;22.69;100912.03;4977488;28;20031;-70
2022/06/22 10:07:49;;;;;;;5.32;5.03;;;;;;;39.89;22.87;100917.34;4977344;28;20062;-71
2022/06/22 10:10:53;;;;;;;1999.90;999.90;;;;;;;40.80;22.19;100914.72;4976186;28;20126;-70
2022/06/22 10:13:40;;;;;;;22.67;21.35;;;;;;;41.43;21.74;100909.31;4956621;28;20039;-70
2022/06/22 10:16:12;;;;;;;3.75;1.35;;;;;;;42.02;21.04;100901.84;4976716;28;20031;-70
2022/06/22 10:19:10;;;;;;;4.78;1.00;;;;;;;42.02;21.02;100906.69;4976928;28;20046;-71
2022/06/22 10:21:50;;;;;;;4.03;1.30;;;;;;;41.47;21.33;100901.00;4944652;28;20404;-70
2022/06/22 10:24:30;;;;;;;3.28;1.52;;;;;;;40.63;21.27;100905.09;4977344;28;20030;-70
2022/06/22 10:27:07;;;;;;;3.40;1.85;;;;;;;40.18;21.89;100906.44;4977313;28;20022;-70
2022/06/22 10:30:02;;;;;;;3.63;1.50;;;;;;;40.25;21.82;100906.81;4975960;28;20507;-71
2022/06/22 10:32:34;;;;;;;2.90;1.23;;;;;;;40.23;21.76;100923.16;4969804;28;20058;-70
2022/06/22 10:35:23;;;;;;;1.30;1.20;;;;;;;39.88;22.43;100915.69;4977170;28;20485;-70
2022/06/22 10:38:13;;;;;;;1.88;1.13;;;;;;;39.65;22.01;100912.09;4977054;28;20027;-70
2022/06/22 10:47:12;;;;;;;5.22;2.08;;;;;;;39.61;21.98;100921.47;4977010;28;20041;-70
2022/06/22 10:50:00;;;;;;;2.08;1.92;;;;;;;39.66;22.82;100924.16;4977193;28;20485;-70
2022/06/22 10:52:59;;;;;;;3.10;2.25;;;;;;;39.58;21.59;100931.34;4959193;28;20149;-70
2022/06/22 10:55:39;;;;;;;3.95;2.13;;;;;;;40.01;21.77;100928.78;4977126;28;20117;-70
2022/06/22 10:58:13;;;;;;;3.58;2.25;;;;;;;40.25;21.58;100932.06;4976611;28;20023;-71
2022/06/22 11:00:54;;;;;;;2.92;1.60;;;;;;;40.56;22.12;100932.88;4975089;28;20043;-71
2022/06/22 11:03:40;;;;;;;3.88;1.38;;;;;;;40.91;21.87;100921.69;4976417;28;20027;-71
2022/06/22 11:06:19;;;;;;;3.90;1.92;;;;;;;41.35;21.56;100921.38;4976504;28;20027;-71
2022/06/22 11:09:15;;;;;;;5.90;1.98;;;;;;;41.69;21.24;100921.31;4976394;28;20038;-71
2022/06/22 11:11:48;;;;;;;3.20;1.95;;;;;;;41.94;20.92;100927.22;4975145;28;20547;-71
2022/06/22 11:14:32;;;;;;;2.28;1.67;;;;;;;42.14;20.88;100924.53;4976075;28;20066;-71
2022/06/22 11:17:16;;;;;;;6.45;1.80;;;;;;;42.37;20.87;100916.63;4975876;28;20027;-70
2022/06/22 11:20:00;;;;;;;4.40;2.10;;;;;;;42.62;20.63;100926.13;4976111;28;20150;-71
2022/06/22 11:22:35;;;;;;;5.30;1.90;;;;;;;42.75;20.33;100919.38;4976019;28;20113;-71
2022/06/22 11:30:48;;;;;;;3.60;1.80;;;;;;;42.97;20.69;100913.44;4959223;28;20058;-70
2022/06/22 11:31:15;;;;;;;8.02;1.90;;;;;;;43.39;20.25;100906.63;4975849;28;20041;-71
2022/06/22 11:33:44;;;;;;;6.70;1.85;;;;;;;43.58;20.29;100911.75;4958918;28;20062;-71
2022/06/22 11:36:12;;;;;;;4.50;2.33;;;;;;;43.68;19.59;100910.47;4975465;28;20086;-70
2022/06/22 11:39:03;;;;;;;3.63;1.90;;;;;;;43.76;19.88;100913.22;4976059;28;20023;-70
2022/06/22 11:41:50;;;;;;;2.28;1.92;;;;;;;43.91;19.66;100918.19;4975803;28;20027;-71
2022/06/22 11:44:43;;;;;;;4.82;1.80;;;;;;;43.97;19.53;100916.78;4958257;28;20035;-71
2022/06/22 11:47:29;;;;;;;8.23;1.73;;;;;;;44.01;19.29;100916.91;4975712;28;20408;-71
2022/06/22 11:50:13;;;;;;;3.35;1.63;;;;;;;44.09;19.55;100917.97;4958141;28;20058;-71
2022/06/22 11:53:12;;;;;;;8.07;2.38;;;;;;;44.15;19.48;100922.22;4975000;28;20026;-71
2022/06/22 11:55:42;;;;;;;6.32;1.92;;;;;;;44.22;19.40;100926.16;4934635;28;20129;-71
2022/06/22 11:58:41;;;;;;;4.07;1.80;;;;;;;44.23;19.15;100908.00;4974726;28;20037;-71
2022/06/22 12:01:34;;;;;;;3.55;1.40;;;;;;;44.28;19.04;100906.94;4975306;28;20055;-70
2022/06/22 12:04:21;;;;;;;5.45;1.90;;;;;;;44.31;18.99;100909.88;4974609;28;20038;-71
2022/06/22 12:07:26;;;;;;;7.20;1.95;;;;;;;44.34;19.24;100922.47;4975347;28;20038;-71
2022/06/22 12:10:09;;;;;;;8.13;2.17;;;;;;;44.44;18.73;100902.22;4973300;28;20038;-71
2022/06/22 12:12:58;;;;;;;4.57;1.30;;;;;;;44.54;19.07;100901.75;4958233;28;20022;-70
2022/06/22 12:15:48;;;;;;;4.15;1.73;;;;;;;44.59;19.14;100904.34;4975496;28;20127;-71
2022/06/22 12:18:40;;;;;;;6.03;2.22;;;;;;;44.64;19.18;100900.47;4974169;28;20026;-71
2022/06/22 12:21:25;;;;;;;5.63;3.08;;;;;;;44.57;18.58;100889.75;4975308;28;20145;-71
2022/06/22 12:24:18;;;;;;;5.30;2.72;;;;;;;44.46;18.86;100882.91;4975204;28;20037;-71
2022/06/22 12:27:17;;;;;;;4.55;1.98;;;;;;;44.41;18.40;100883.13;4957485;28;20031;-71
2022/06/22 12:29:54;;;;;;;6.68;1.77;;;;;;;44.40;18.74;100887.13;4946985;28;20066;-70
2022/06/22 12:32:31;;;;;;;3.70;1.48;;;;;;;44.42;18.23;100887.63;4975779;28;20027;-71